sensor_id;sensor_type;location;lat;lon;timestamp;temperature;humidity
12948;DHT22;6539;49.476;8.484;2024-03-29T00:00:40;9.40;99.90
12948;DHT22;6539;49.476;8.484;2024-03-29T00:03:29;9.50;99.90
12948;DHT22;6539;49.476;8.484;2024-03-29T00:06:16;9.60;99.90
12948;DHT22;6539;49.476;8.484;2024-03-29T00:09:02;9.60;99.90
12948;DHT22;6539;49.476;8.484;2024-03-29T00:11:53;9.70;99.90
12948;DHT22;6539;49.476;8.484;2024-03-29T00:14:39;9.80;99.90
12948;DHT22;6539;49.476;8.484;2024-03-29T00:17:25;9.80;99.90
12948;DHT22;6539;49.476;8.484;2024-03-29T00:20:14;9.90;99.90
12948;DHT22;6539;49.476;8.484;2024-03-29T00:23:03;9.90;99.90
12948;DHT22;6539;49.476;8.484;2024-03-29T00:25:52;9.90;99.90
12948;DHT22;6539;49.476;8.484;2024-03-29T00:28:39;9.90;99.90
12948;DHT22;6539;49.476;8.484;2024-03-29T00:31:25;9.90;99.90
12948;DHT22;6539;49.476;8.484;2024-03-29T00:34:11;9.90;99.90
12948;DHT22;6539;49.476;8.484;2024-03-29T00:36:57;9.90;99.90
12948;DHT22;6539;49.476;8.484;2024-03-29T00:39:45;9.80;99.90
12948;DHT22;6539;49.476;8.484;2024-03-29T00:42:32;9.90;99.90
12948;DHT22;6539;49.476;8.484;2024-03-29T00:45:18;9.90;99.90
12948;DHT22;6539;49.476;8.484;2024-03-29T00:48:04;9.90;99.90
12948;DHT22;6539;49.476;8.484;2024-03-29T00:50:53;9.90;99.90
12948;DHT22;6539;49.476;8.484;2024-03-29T00:53:39;10.00;99.90
12948;DHT22;6539;49.476;8.484;2024-03-29T00:56:25;9.90;99.90
12948;DHT22;6539;49.476;8.484;2024-03-29T00:59:13;9.90;99.90
12948;DHT22;6539;49.476;8.484;2024-03-29T01:01:59;10.00;99.90
12948;DHT22;6539;49.476;8.484;2024-03-29T01:04:45;10.00;99.90
12948;DHT22;6539;49.476;8.484;2024-03-29T01:07:34;10.10;99.90
12948;DHT22;6539;49.476;8.484;2024-03-29T01:10:20;10.10;99.90
12948;DHT22;6539;49.476;8.484;2024-03-29T01:13:09;10.20;99.90
12948;DHT22;6539;49.476;8.484;2024-03-29T01:15:57;10.20;99.90
12948;DHT22;6539;49.476;8.484;2024-03-29T01:18:43;10.10;99.90
12948;DHT22;6539;49.476;8.484;2024-03-29T01:21:30;10.20;99.90
12948;DHT22;6539;49.476;8.484;2024-03-29T01:24:19;10.20;99.90
12948;DHT22;6539;49.476;8.484;2024-03-29T01:27:08;10.20;99.90
12948;DHT22;6539;49.476;8.484;2024-03-29T01:29:54;10.20;99.90
12948;DHT22;6539;49.476;8.484;2024-03-29T01:32:40;10.10;99.90
12948;DHT22;6539;49.476;8.484;2024-03-29T01:35:27;10.10;99.90
12948;DHT22;6539;49.476;8.484;2024-03-29T01:38:14;10.20;99.90
12948;DHT22;6539;49.476;8.484;2024-03-29T01:41:01;10.30;99.90
12948;DHT22;6539;49.476;8.484;2024-03-29T01:43:50;10.20;99.90
12948;DHT22;6539;49.476;8.484;2024-03-29T01:46:39;10.20;99.90
12948;DHT22;6539;49.476;8.484;2024-03-29T01:49:25;10.20;99.90
12948;DHT22;6539;49.476;8.484;2024-03-29T01:52:13;10.30;99.90
12948;DHT22;6539;49.476;8.484;2024-03-29T01:55:01;10.30;99.90
12948;DHT22;6539;49.476;8.484;2024-03-29T01:57:48;10.30;99.90
12948;DHT22;6539;49.476;8.484;2024-03-29T02:00:54;10.30;99.90
12948;DHT22;6539;49.476;8.484;2024-03-29T02:03:42;10.40;99.90
12948;DHT22;6539;49.476;8.484;2024-03-29T02:06:32;10.40;99.90
12948;DHT22;6539;49.476;8.484;2024-03-29T02:09:18;10.30;99.90
12948;DHT22;6539;49.476;8.484;2024-03-29T02:12:07;10.30;99.90
12948;DHT22;6539;49.476;8.484;2024-03-29T02:14:56;10.30;99.90
12948;DHT22;6539;49.476;8.484;2024-03-29T02:17:43;10.30;99.90
12948;DHT22;6539;49.476;8.484;2024-03-29T02:20:32;10.30;99.90
12948;DHT22;6539;49.476;8.484;2024-03-29T02:23:25;10.30;99.90
12948;DHT22;6539;49.476;8.484;2024-03-29T02:26:13;10.30;99.90
12948;DHT22;6539;49.476;8.484;2024-03-29T02:29:00;10.30;99.90
12948;DHT22;6539;49.476;8.484;2024-03-29T02:31:53;10.30;99.90
12948;DHT22;6539;49.476;8.484;2024-03-29T02:34:42;10.40;99.90
12948;DHT22;6539;49.476;8.484;2024-03-29T02:37:28;10.50;99.90
12948;DHT22;6539;49.476;8.484;2024-03-29T02:40:14;10.50;99.90
12948;DHT22;6539;49.476;8.484;2024-03-29T02:43:03;10.60;99.90
12948;DHT22;6539;49.476;8.484;2024-03-29T02:45:49;10.60;99.90
12948;DHT22;6539;49.476;8.484;2024-03-29T02:48:35;10.50;99.90
12948;DHT22;6539;49.476;8.484;2024-03-29T02:51:24;10.60;99.90
12948;DHT22;6539;49.476;8.484;2024-03-29T02:54:12;10.70;99.90
12948;DHT22;6539;49.476;8.484;2024-03-29T02:56:58;10.60;99.90
12948;DHT22;6539;49.476;8.484;2024-03-29T02:59:44;10.60;99.90
12948;DHT22;6539;49.476;8.484;2024-03-29T03:02:30;10.70;99.90
12948;DHT22;6539;49.476;8.484;2024-03-29T03:05:18;10.70;99.90
12948;DHT22;6539;49.476;8.484;2024-03-29T03:08:07;10.70;99.90
12948;DHT22;6539;49.476;8.484;2024-03-29T03:11:11;10.70;99.90
12948;DHT22;6539;49.476;8.484;2024-03-29T03:13:57;10.80;99.90
12948;DHT22;6539;49.476;8.484;2024-03-29T03:16:43;10.80;99.90
12948;DHT22;6539;49.476;8.484;2024-03-29T03:19:32;10.90;99.90
12948;DHT22;6539;49.476;8.484;2024-03-29T03:22:18;10.80;99.90
12948;DHT22;6539;49.476;8.484;2024-03-29T03:25:05;10.90;99.90
12948;DHT22;6539;49.476;8.484;2024-03-29T03:27:53;10.90;99.90
12948;DHT22;6539;49.476;8.484;2024-03-29T03:30:42;10.90;99.90
12948;DHT22;6539;49.476;8.484;2024-03-29T03:33:28;10.90;99.90
12948;DHT22;6539;49.476;8.484;2024-03-29T03:36:14;10.80;99.90
12948;DHT22;6539;49.476;8.484;2024-03-29T03:39:00;10.90;99.90
12948;DHT22;6539;49.476;8.484;2024-03-29T03:41:49;10.90;99.90
12948;DHT22;6539;49.476;8.484;2024-03-29T03:44:36;10.90;99.90
12948;DHT22;6539;49.476;8.484;2024-03-29T03:47:22;10.90;99.90
12948;DHT22;6539;49.476;8.484;2024-03-29T03:50:08;10.90;99.90
12948;DHT22;6539;49.476;8.484;2024-03-29T03:52:57;10.90;99.90
12948;DHT22;6539;49.476;8.484;2024-03-29T03:55:43;10.80;99.90
12948;DHT22;6539;49.476;8.484;2024-03-29T03:58:34;10.80;99.90
12948;DHT22;6539;49.476;8.484;2024-03-29T04:01:20;10.80;99.90
12948;DHT22;6539;49.476;8.484;2024-03-29T04:04:07;10.80;99.90
12948;DHT22;6539;49.476;8.484;2024-03-29T04:06:53;10.70;99.90
12948;DHT22;6539;49.476;8.484;2024-03-29T04:09:39;10.70;99.90
12948;DHT22;6539;49.476;8.484;2024-03-29T04:12:27;10.70;99.90
12948;DHT22;6539;49.476;8.484;2024-03-29T04:15:13;10.70;99.90
12948;DHT22;6539;49.476;8.484;2024-03-29T04:17:59;10.70;99.90
12948;DHT22;6539;49.476;8.484;2024-03-29T04:20:46;10.70;99.90
12948;DHT22;6539;49.476;8.484;2024-03-29T04:23:32;10.70;99.90
12948;DHT22;6539;49.476;8.484;2024-03-29T04:26:20;10.70;99.90
12948;DHT22;6539;49.476;8.484;2024-03-29T04:29:06;10.70;99.90
12948;DHT22;6539;49.476;8.484;2024-03-29T04:31:52;10.60;99.90
12948;DHT22;6539;49.476;8.484;2024-03-29T04:34:38;10.60;99.90
12948;DHT22;6539;49.476;8.484;2024-03-29T04:37:27;10.50;99.90
12948;DHT22;6539;49.476;8.484;2024-03-29T04:40:13;10.50;99.90
12948;DHT22;6539;49.476;8.484;2024-03-29T04:43:02;10.40;99.90
12948;DHT22;6539;49.476;8.484;2024-03-29T04:45:48;10.40;99.90
12948;DHT22;6539;49.476;8.484;2024-03-29T04:48:34;10.50;99.90
12948;DHT22;6539;49.476;8.484;2024-03-29T04:51:20;10.50;99.90
12948;DHT22;6539;49.476;8.484;2024-03-29T04:54:06;10.40;99.90
12948;DHT22;6539;49.476;8.484;2024-03-29T04:56:55;10.30;99.90
12948;DHT22;6539;49.476;8.484;2024-03-29T04:59:44;10.30;99.90
12948;DHT22;6539;49.476;8.484;2024-03-29T05:02:30;10.30;99.90
12948;DHT22;6539;49.476;8.484;2024-03-29T05:05:16;10.30;99.90
12948;DHT22;6539;49.476;8.484;2024-03-29T05:08:02;10.40;99.90
12948;DHT22;6539;49.476;8.484;2024-03-29T05:10:54;10.40;99.90
12948;DHT22;6539;49.476;8.484;2024-03-29T05:13:40;10.30;99.90
12948;DHT22;6539;49.476;8.484;2024-03-29T05:16:26;10.30;99.90
12948;DHT22;6539;49.476;8.484;2024-03-29T05:19:13;10.40;99.90
12948;DHT22;6539;49.476;8.484;2024-03-29T05:22:00;10.30;99.90
12948;DHT22;6539;49.476;8.484;2024-03-29T05:24:46;10.30;99.90
12948;DHT22;6539;49.476;8.484;2024-03-29T05:27:32;10.30;99.90
12948;DHT22;6539;49.476;8.484;2024-03-29T05:30:19;10.20;99.90
12948;DHT22;6539;49.476;8.484;2024-03-29T05:33:05;10.20;99.90
12948;DHT22;6539;49.476;8.484;2024-03-29T05:35:52;10.30;99.90
12948;DHT22;6539;49.476;8.484;2024-03-29T05:38:39;10.30;99.90
12948;DHT22;6539;49.476;8.484;2024-03-29T05:41:26;10.30;99.90
12948;DHT22;6539;49.476;8.484;2024-03-29T05:44:12;10.30;99.90
12948;DHT22;6539;49.476;8.484;2024-03-29T05:46:59;10.40;99.90
12948;DHT22;6539;49.476;8.484;2024-03-29T05:49:45;10.40;99.90
12948;DHT22;6539;49.476;8.484;2024-03-29T05:52:33;10.40;99.90
12948;DHT22;6539;49.476;8.484;2024-03-29T05:55:20;10.50;99.90
12948;DHT22;6539;49.476;8.484;2024-03-29T05:58:08;10.50;99.90
12948;DHT22;6539;49.476;8.484;2024-03-29T06:00:54;10.50;99.90
12948;DHT22;6539;49.476;8.484;2024-03-29T06:03:40;10.50;99.90
12948;DHT22;6539;49.476;8.484;2024-03-29T06:06:28;10.50;99.90
12948;DHT22;6539;49.476;8.484;2024-03-29T06:09:14;10.40;99.90
12948;DHT22;6539;49.476;8.484;2024-03-29T06:12:04;10.50;99.90
12948;DHT22;6539;49.476;8.484;2024-03-29T06:14:51;10.60;99.90
12948;DHT22;6539;49.476;8.484;2024-03-29T06:17:55;10.50;99.90
12948;DHT22;6539;49.476;8.484;2024-03-29T06:20:47;10.40;99.90
12948;DHT22;6539;49.476;8.484;2024-03-29T06:23:34;10.40;99.90
12948;DHT22;6539;49.476;8.484;2024-03-29T06:26:20;10.40;99.90
12948;DHT22;6539;49.476;8.484;2024-03-29T06:29:09;10.30;99.90
12948;DHT22;6539;49.476;8.484;2024-03-29T06:31:55;10.40;99.90
12948;DHT22;6539;49.476;8.484;2024-03-29T06:34:41;10.40;99.90
12948;DHT22;6539;49.476;8.484;2024-03-29T06:37:30;10.50;99.90
12948;DHT22;6539;49.476;8.484;2024-03-29T06:40:18;10.30;99.90
12948;DHT22;6539;49.476;8.484;2024-03-29T06:43:07;10.30;99.90
12948;DHT22;6539;49.476;8.484;2024-03-29T06:45:53;10.40;99.90
12948;DHT22;6539;49.476;8.484;2024-03-29T06:48:39;10.30;99.90
12948;DHT22;6539;49.476;8.484;2024-03-29T06:51:26;10.30;99.90
12948;DHT22;6539;49.476;8.484;2024-03-29T06:54:12;10.30;99.90
12948;DHT22;6539;49.476;8.484;2024-03-29T06:56:58;10.40;99.90
12948;DHT22;6539;49.476;8.484;2024-03-29T06:59:45;10.40;99.90
12948;DHT22;6539;49.476;8.484;2024-03-29T07:02:31;10.50;99.90
12948;DHT22;6539;49.476;8.484;2024-03-29T07:05:17;10.50;99.90
12948;DHT22;6539;49.476;8.484;2024-03-29T07:08:03;10.50;99.90
12948;DHT22;6539;49.476;8.484;2024-03-29T07:10:58;10.50;99.90
12948;DHT22;6539;49.476;8.484;2024-03-29T07:13:45;10.50;99.90
12948;DHT22;6539;49.476;8.484;2024-03-29T07:16:33;10.60;99.90
12948;DHT22;6539;49.476;8.484;2024-03-29T07:19:19;10.70;99.90
12948;DHT22;6539;49.476;8.484;2024-03-29T07:22:11;10.70;99.90
12948;DHT22;6539;49.476;8.484;2024-03-29T07:25:00;10.70;99.90
12948;DHT22;6539;49.476;8.484;2024-03-29T07:27:51;10.60;99.90
12948;DHT22;6539;49.476;8.484;2024-03-29T07:30:41;10.70;99.90
12948;DHT22;6539;49.476;8.484;2024-03-29T07:33:27;10.90;99.90
12948;DHT22;6539;49.476;8.484;2024-03-29T07:36:19;10.90;99.90
12948;DHT22;6539;49.476;8.484;2024-03-29T07:39:05;11.00;99.90
12948;DHT22;6539;49.476;8.484;2024-03-29T07:41:52;11.10;99.90
12948;DHT22;6539;49.476;8.484;2024-03-29T07:44:40;11.10;99.90
12948;DHT22;6539;49.476;8.484;2024-03-29T07:47:26;11.30;99.90
12948;DHT22;6539;49.476;8.484;2024-03-29T07:50:14;11.40;99.90
12948;DHT22;6539;49.476;8.484;2024-03-29T07:53:02;11.40;99.90
12948;DHT22;6539;49.476;8.484;2024-03-29T07:55:49;11.50;99.90
12948;DHT22;6539;49.476;8.484;2024-03-29T07:58:36;11.60;99.90
12948;DHT22;6539;49.476;8.484;2024-03-29T08:01:23;11.60;99.90
12948;DHT22;6539;49.476;8.484;2024-03-29T08:04:09;11.70;99.90
12948;DHT22;6539;49.476;8.484;2024-03-29T08:06:55;11.60;99.90
12948;DHT22;6539;49.476;8.484;2024-03-29T08:09:43;11.60;99.90
12948;DHT22;6539;49.476;8.484;2024-03-29T08:12:29;11.60;99.90
12948;DHT22;6539;49.476;8.484;2024-03-29T08:15:18;11.60;99.90
12948;DHT22;6539;49.476;8.484;2024-03-29T08:18:05;11.50;99.90
12948;DHT22;6539;49.476;8.484;2024-03-29T08:20:56;11.50;99.90
12948;DHT22;6539;49.476;8.484;2024-03-29T08:23:43;11.50;99.90
12948;DHT22;6539;49.476;8.484;2024-03-29T08:26:36;11.60;99.90
12948;DHT22;6539;49.476;8.484;2024-03-29T08:29:22;11.50;99.90
12948;DHT22;6539;49.476;8.484;2024-03-29T08:32:09;11.50;99.90
12948;DHT22;6539;49.476;8.484;2024-03-29T08:34:56;11.40;99.90
12948;DHT22;6539;49.476;8.484;2024-03-29T08:37:47;11.40;99.90
12948;DHT22;6539;49.476;8.484;2024-03-29T08:40:33;11.50;99.90
12948;DHT22;6539;49.476;8.484;2024-03-29T08:43:20;11.40;99.90
12948;DHT22;6539;49.476;8.484;2024-03-29T08:46:06;11.30;99.90
12948;DHT22;6539;49.476;8.484;2024-03-29T08:48:54;11.30;99.90
12948;DHT22;6539;49.476;8.484;2024-03-29T08:51:43;11.20;99.90
12948;DHT22;6539;49.476;8.484;2024-03-29T08:54:29;11.20;99.90
12948;DHT22;6539;49.476;8.484;2024-03-29T08:57:17;11.10;99.90
12948;DHT22;6539;49.476;8.484;2024-03-29T09:00:04;11.00;99.90
12948;DHT22;6539;49.476;8.484;2024-03-29T09:02:51;10.90;99.90
12948;DHT22;6539;49.476;8.484;2024-03-29T09:05:37;10.80;99.90
12948;DHT22;6539;49.476;8.484;2024-03-29T09:08:23;10.70;99.90
12948;DHT22;6539;49.476;8.484;2024-03-29T09:11:09;10.70;99.90
12948;DHT22;6539;49.476;8.484;2024-03-29T09:13:59;10.70;99.90
12948;DHT22;6539;49.476;8.484;2024-03-29T09:16:46;10.50;99.90
12948;DHT22;6539;49.476;8.484;2024-03-29T09:19:35;10.50;99.90
12948;DHT22;6539;49.476;8.484;2024-03-29T09:22:21;10.30;99.90
12948;DHT22;6539;49.476;8.484;2024-03-29T09:25:08;10.20;99.90
12948;DHT22;6539;49.476;8.484;2024-03-29T09:27:59;10.10;99.90
12948;DHT22;6539;49.476;8.484;2024-03-29T09:30:47;9.90;99.90
12948;DHT22;6539;49.476;8.484;2024-03-29T09:33:36;9.90;99.90
12948;DHT22;6539;49.476;8.484;2024-03-29T09:36:22;9.80;99.90
12948;DHT22;6539;49.476;8.484;2024-03-29T09:39:11;9.90;99.90
12948;DHT22;6539;49.476;8.484;2024-03-29T09:41:58;9.80;99.90
12948;DHT22;6539;49.476;8.484;2024-03-29T09:44:55;9.80;99.90
12948;DHT22;6539;49.476;8.484;2024-03-29T09:47:43;9.80;99.90
12948;DHT22;6539;49.476;8.484;2024-03-29T09:50:32;9.80;99.90
12948;DHT22;6539;49.476;8.484;2024-03-29T09:53:23;9.80;99.90
12948;DHT22;6539;49.476;8.484;2024-03-29T09:56:10;9.90;99.90
12948;DHT22;6539;49.476;8.484;2024-03-29T09:58:56;9.90;99.90
12948;DHT22;6539;49.476;8.484;2024-03-29T10:01:43;9.90;99.90
12948;DHT22;6539;49.476;8.484;2024-03-29T10:04:32;9.90;99.90
12948;DHT22;6539;49.476;8.484;2024-03-29T10:07:19;9.90;99.90
12948;DHT22;6539;49.476;8.484;2024-03-29T10:10:07;9.90;99.90
12948;DHT22;6539;49.476;8.484;2024-03-29T10:12:56;9.90;99.90
12948;DHT22;6539;49.476;8.484;2024-03-29T10:15:49;9.90;99.90
12948;DHT22;6539;49.476;8.484;2024-03-29T10:18:41;10.00;99.90
12948;DHT22;6539;49.476;8.484;2024-03-29T10:21:29;9.90;99.90
12948;DHT22;6539;49.476;8.484;2024-03-29T10:24:16;9.90;99.90
12948;DHT22;6539;49.476;8.484;2024-03-29T10:27:06;10.00;99.90
12948;DHT22;6539;49.476;8.484;2024-03-29T10:29:53;10.10;99.90
12948;DHT22;6539;49.476;8.484;2024-03-29T10:32:40;10.20;99.90
12948;DHT22;6539;49.476;8.484;2024-03-29T10:35:26;10.30;99.90
12948;DHT22;6539;49.476;8.484;2024-03-29T10:38:13;10.30;99.90
12948;DHT22;6539;49.476;8.484;2024-03-29T10:40:59;10.40;99.90
12948;DHT22;6539;49.476;8.484;2024-03-29T10:43:49;10.60;99.90
12948;DHT22;6539;49.476;8.484;2024-03-29T10:46:41;10.60;99.90
12948;DHT22;6539;49.476;8.484;2024-03-29T10:49:33;11.00;99.90
12948;DHT22;6539;49.476;8.484;2024-03-29T10:52:21;11.20;99.90
12948;DHT22;6539;49.476;8.484;2024-03-29T10:55:12;11.60;99.90
12948;DHT22;6539;49.476;8.484;2024-03-29T10:58:00;11.90;99.90
12948;DHT22;6539;49.476;8.484;2024-03-29T11:00:57;12.10;99.90
12948;DHT22;6539;49.476;8.484;2024-03-29T11:04:12;12.30;99.90
12948;DHT22;6539;49.476;8.484;2024-03-29T11:07:08;12.10;99.90
12948;DHT22;6539;49.476;8.484;2024-03-29T11:10:03;12.10;99.90
12948;DHT22;6539;49.476;8.484;2024-03-29T11:16:12;12.00;99.90
12948;DHT22;6539;49.476;8.484;2024-03-29T11:18:59;11.90;99.90
12948;DHT22;6539;49.476;8.484;2024-03-29T11:21:48;11.90;99.90
12948;DHT22;6539;49.476;8.484;2024-03-29T11:24:34;11.90;99.90
12948;DHT22;6539;49.476;8.484;2024-03-29T11:27:24;11.90;99.90
12948;DHT22;6539;49.476;8.484;2024-03-29T11:30:10;12.10;99.90
12948;DHT22;6539;49.476;8.484;2024-03-29T11:32:59;12.40;99.90
12948;DHT22;6539;49.476;8.484;2024-03-29T11:35:47;12.50;99.90
12948;DHT22;6539;49.476;8.484;2024-03-29T11:38:35;12.50;99.90
12948;DHT22;6539;49.476;8.484;2024-03-29T11:41:25;12.40;99.90
12948;DHT22;6539;49.476;8.484;2024-03-29T11:44:15;12.30;99.90
12948;DHT22;6539;49.476;8.484;2024-03-29T11:47:03;12.40;99.90
12948;DHT22;6539;49.476;8.484;2024-03-29T11:49:58;12.40;99.90
12948;DHT22;6539;49.476;8.484;2024-03-29T11:52:45;12.40;99.90
12948;DHT22;6539;49.476;8.484;2024-03-29T11:55:34;12.30;99.90
12948;DHT22;6539;49.476;8.484;2024-03-29T11:58:27;12.30;99.90
12948;DHT22;6539;49.476;8.484;2024-03-29T12:01:17;12.30;99.90
12948;DHT22;6539;49.476;8.484;2024-03-29T12:04:07;12.30;99.90
12948;DHT22;6539;49.476;8.484;2024-03-29T12:06:54;12.30;99.90
12948;DHT22;6539;49.476;8.484;2024-03-29T12:09:40;12.30;99.90
12948;DHT22;6539;49.476;8.484;2024-03-29T12:12:26;12.10;99.90
12948;DHT22;6539;49.476;8.484;2024-03-29T12:15:18;12.00;99.90
12948;DHT22;6539;49.476;8.484;2024-03-29T12:18:05;11.90;99.90
12948;DHT22;6539;49.476;8.484;2024-03-29T12:20:52;11.90;99.90
12948;DHT22;6539;49.476;8.484;2024-03-29T12:23:51;11.70;99.90
12948;DHT22;6539;49.476;8.484;2024-03-29T12:26:41;11.60;99.90
12948;DHT22;6539;49.476;8.484;2024-03-29T12:29:28;11.60;99.90
12948;DHT22;6539;49.476;8.484;2024-03-29T12:32:20;11.60;99.90
12948;DHT22;6539;49.476;8.484;2024-03-29T12:35:12;11.60;99.90
12948;DHT22;6539;49.476;8.484;2024-03-29T12:38:02;11.70;99.90
12948;DHT22;6539;49.476;8.484;2024-03-29T12:40:50;11.80;99.90
12948;DHT22;6539;49.476;8.484;2024-03-29T12:43:36;11.70;99.90
12948;DHT22;6539;49.476;8.484;2024-03-29T12:46:25;11.70;99.90
12948;DHT22;6539;49.476;8.484;2024-03-29T12:49:15;11.70;99.90
12948;DHT22;6539;49.476;8.484;2024-03-29T12:52:01;11.70;99.90
12948;DHT22;6539;49.476;8.484;2024-03-29T12:54:48;11.70;99.90
12948;DHT22;6539;49.476;8.484;2024-03-29T12:57:34;11.90;99.90
12948;DHT22;6539;49.476;8.484;2024-03-29T13:00:23;11.90;99.90
12948;DHT22;6539;49.476;8.484;2024-03-29T13:03:09;11.80;99.90
12948;DHT22;6539;49.476;8.484;2024-03-29T13:05:56;11.90;99.90
12948;DHT22;6539;49.476;8.484;2024-03-29T13:08:43;11.90;99.90
12948;DHT22;6539;49.476;8.484;2024-03-29T13:11:29;11.90;99.90
12948;DHT22;6539;49.476;8.484;2024-03-29T13:14:16;11.90;99.90
12948;DHT22;6539;49.476;8.484;2024-03-29T13:17:02;11.80;99.90
12948;DHT22;6539;49.476;8.484;2024-03-29T13:19:48;11.80;99.90
12948;DHT22;6539;49.476;8.484;2024-03-29T13:22:39;11.70;99.90
12948;DHT22;6539;49.476;8.484;2024-03-29T13:25:28;11.70;99.90
12948;DHT22;6539;49.476;8.484;2024-03-29T13:28:14;11.70;99.90
12948;DHT22;6539;49.476;8.484;2024-03-29T13:31:03;11.70;99.90
12948;DHT22;6539;49.476;8.484;2024-03-29T13:33:52;11.60;99.90
12948;DHT22;6539;49.476;8.484;2024-03-29T13:36:41;11.50;99.90
12948;DHT22;6539;49.476;8.484;2024-03-29T13:39:27;11.60;99.90
12948;DHT22;6539;49.476;8.484;2024-03-29T13:42:13;11.60;99.90
12948;DHT22;6539;49.476;8.484;2024-03-29T13:44:59;11.60;99.90
12948;DHT22;6539;49.476;8.484;2024-03-29T13:47:48;11.60;99.90
12948;DHT22;6539;49.476;8.484;2024-03-29T13:50:36;11.60;99.90
12948;DHT22;6539;49.476;8.484;2024-03-29T13:53:23;11.70;99.90
12948;DHT22;6539;49.476;8.484;2024-03-29T13:56:09;11.70;99.90
12948;DHT22;6539;49.476;8.484;2024-03-29T13:58:55;11.70;99.90
12948;DHT22;6539;49.476;8.484;2024-03-29T14:01:41;11.70;99.90
12948;DHT22;6539;49.476;8.484;2024-03-29T14:04:27;11.80;99.90
12948;DHT22;6539;49.476;8.484;2024-03-29T14:07:15;12.00;99.90
12948;DHT22;6539;49.476;8.484;2024-03-29T14:10:02;11.90;99.90
12948;DHT22;6539;49.476;8.484;2024-03-29T14:12:51;11.90;99.90
12948;DHT22;6539;49.476;8.484;2024-03-29T14:15:39;11.90;99.90
12948;DHT22;6539;49.476;8.484;2024-03-29T14:18:27;12.00;99.90
12948;DHT22;6539;49.476;8.484;2024-03-29T14:21:15;12.10;99.90
12948;DHT22;6539;49.476;8.484;2024-03-29T14:24:08;12.10;99.90
12948;DHT22;6539;49.476;8.484;2024-03-29T14:26:57;12.20;99.90
12948;DHT22;6539;49.476;8.484;2024-03-29T14:29:43;12.40;99.90
12948;DHT22;6539;49.476;8.484;2024-03-29T14:32:31;12.60;99.90
12948;DHT22;6539;49.476;8.484;2024-03-29T14:35:20;12.80;99.90
12948;DHT22;6539;49.476;8.484;2024-03-29T14:38:08;12.90;99.90
12948;DHT22;6539;49.476;8.484;2024-03-29T14:41:01;13.10;99.90
12948;DHT22;6539;49.476;8.484;2024-03-29T14:43:47;13.20;99.90
12948;DHT22;6539;49.476;8.484;2024-03-29T14:46:36;13.20;99.90
12948;DHT22;6539;49.476;8.484;2024-03-29T14:49:25;13.20;99.90
12948;DHT22;6539;49.476;8.484;2024-03-29T14:52:13;13.20;99.90
12948;DHT22;6539;49.476;8.484;2024-03-29T14:55:01;13.20;99.90
12948;DHT22;6539;49.476;8.484;2024-03-29T14:57:48;13.20;99.90
12948;DHT22;6539;49.476;8.484;2024-03-29T15:00:37;13.30;99.90
12948;DHT22;6539;49.476;8.484;2024-03-29T15:03:23;13.30;99.90
12948;DHT22;6539;49.476;8.484;2024-03-29T15:06:10;13.20;99.90
12948;DHT22;6539;49.476;8.484;2024-03-29T15:08:58;13.20;99.90
12948;DHT22;6539;49.476;8.484;2024-03-29T15:11:44;13.10;99.90
12948;DHT22;6539;49.476;8.484;2024-03-29T15:14:31;13.00;99.90
12948;DHT22;6539;49.476;8.484;2024-03-29T15:17:17;12.90;99.90
12948;DHT22;6539;49.476;8.484;2024-03-29T15:20:05;13.00;99.90
12948;DHT22;6539;49.476;8.484;2024-03-29T15:22:54;12.90;99.90
12948;DHT22;6539;49.476;8.484;2024-03-29T15:25:42;12.90;99.90
12948;DHT22;6539;49.476;8.484;2024-03-29T15:28:33;12.90;99.90
12948;DHT22;6539;49.476;8.484;2024-03-29T15:31:42;13.10;99.90
12948;DHT22;6539;49.476;8.484;2024-03-29T15:34:29;13.20;99.90
12948;DHT22;6539;49.476;8.484;2024-03-29T15:37:15;13.40;99.90
12948;DHT22;6539;49.476;8.484;2024-03-29T15:40:01;13.50;99.90
12948;DHT22;6539;49.476;8.484;2024-03-29T15:42:48;13.50;99.90
12948;DHT22;6539;49.476;8.484;2024-03-29T15:45:36;13.60;99.90
12948;DHT22;6539;49.476;8.484;2024-03-29T15:48:27;13.70;99.90
12948;DHT22;6539;49.476;8.484;2024-03-29T15:51:16;13.80;99.90
12948;DHT22;6539;49.476;8.484;2024-03-29T15:54:02;14.00;99.90
12948;DHT22;6539;49.476;8.484;2024-03-29T15:56:52;14.00;99.90
12948;DHT22;6539;49.476;8.484;2024-03-29T15:59:38;14.00;99.90
12948;DHT22;6539;49.476;8.484;2024-03-29T16:02:26;14.10;99.90
12948;DHT22;6539;49.476;8.484;2024-03-29T16:05:12;14.20;99.90
12948;DHT22;6539;49.476;8.484;2024-03-29T16:08:01;14.30;99.90
12948;DHT22;6539;49.476;8.484;2024-03-29T16:13:43;15.20;99.90
12948;DHT22;6539;49.476;8.484;2024-03-29T16:16:31;15.40;99.90
12948;DHT22;6539;49.476;8.484;2024-03-29T16:19:20;15.60;99.90
12948;DHT22;6539;49.476;8.484;2024-03-29T16:22:06;15.90;99.90
12948;DHT22;6539;49.476;8.484;2024-03-29T16:24:52;15.90;99.90
12948;DHT22;6539;49.476;8.484;2024-03-29T16:27:43;15.90;99.90
12948;DHT22;6539;49.476;8.484;2024-03-29T16:30:31;15.80;99.90
12948;DHT22;6539;49.476;8.484;2024-03-29T16:33:17;15.60;99.90
12948;DHT22;6539;49.476;8.484;2024-03-29T16:36:07;15.60;99.90
12948;DHT22;6539;49.476;8.484;2024-03-29T16:38:54;16.00;99.90
12948;DHT22;6539;49.476;8.484;2024-03-29T16:41:40;16.00;99.90
12948;DHT22;6539;49.476;8.484;2024-03-29T16:44:26;15.90;99.90
12948;DHT22;6539;49.476;8.484;2024-03-29T16:47:12;15.70;99.90
12948;DHT22;6539;49.476;8.484;2024-03-29T16:50:03;15.70;99.90
12948;DHT22;6539;49.476;8.484;2024-03-29T16:52:50;15.60;99.90
12948;DHT22;6539;49.476;8.484;2024-03-29T16:55:36;15.40;99.90
12948;DHT22;6539;49.476;8.484;2024-03-29T16:58:24;15.30;99.90
12948;DHT22;6539;49.476;8.484;2024-03-29T17:01:10;15.10;99.90
12948;DHT22;6539;49.476;8.484;2024-03-29T17:03:59;15.00;99.90
12948;DHT22;6539;49.476;8.484;2024-03-29T17:06:48;14.90;99.90
12948;DHT22;6539;49.476;8.484;2024-03-29T17:09:40;14.70;99.90
12948;DHT22;6539;49.476;8.484;2024-03-29T17:12:27;14.60;99.90
12948;DHT22;6539;49.476;8.484;2024-03-29T17:15:13;14.40;99.90
12948;DHT22;6539;49.476;8.484;2024-03-29T17:17:59;14.20;99.90
12948;DHT22;6539;49.476;8.484;2024-03-29T17:20:48;13.90;99.90
12948;DHT22;6539;49.476;8.484;2024-03-29T17:23:37;13.60;99.90
12948;DHT22;6539;49.476;8.484;2024-03-29T17:26:23;13.60;99.90
12948;DHT22;6539;49.476;8.484;2024-03-29T17:29:09;13.60;99.90
12948;DHT22;6539;49.476;8.484;2024-03-29T17:31:55;13.50;99.90
12948;DHT22;6539;49.476;8.484;2024-03-29T17:34:44;13.40;99.90
12948;DHT22;6539;49.476;8.484;2024-03-29T17:37:30;13.40;99.90
12948;DHT22;6539;49.476;8.484;2024-03-29T17:40:16;13.30;99.90
12948;DHT22;6539;49.476;8.484;2024-03-29T17:43:02;13.20;99.90
12948;DHT22;6539;49.476;8.484;2024-03-29T17:45:48;13.30;99.90
12948;DHT22;6539;49.476;8.484;2024-03-29T17:48:35;13.20;99.90
12948;DHT22;6539;49.476;8.484;2024-03-29T17:51:23;13.10;99.90
12948;DHT22;6539;49.476;8.484;2024-03-29T17:54:10;13.00;99.90
12948;DHT22;6539;49.476;8.484;2024-03-29T17:56:56;12.90;99.90
12948;DHT22;6539;49.476;8.484;2024-03-29T17:59:45;12.90;99.90
12948;DHT22;6539;49.476;8.484;2024-03-29T18:02:32;12.90;99.90
12948;DHT22;6539;49.476;8.484;2024-03-29T18:05:22;12.80;99.90